createdAt,value
2022-08-14T00:00:41.746Z,23.90
2022-08-14T00:01:50.244Z,24.00
2022-08-14T00:02:58.037Z,23.90
2022-08-14T00:04:02.326Z,24.00
2022-08-14T00:05:28.497Z,23.90
2022-08-14T00:06:32.325Z,24.00
2022-08-14T00:07:41.997Z,24.00
2022-08-14T00:08:46.841Z,24.00
2022-08-14T00:10:02.049Z,24.00
2022-08-14T00:11:14.920Z,24.00
2022-08-14T00:12:23.651Z,24.00
2022-08-14T00:13:29.313Z,23.90
2022-08-14T00:16:11.469Z,23.90
2022-08-14T00:17:38.140Z,23.90
2022-08-14T00:19:06.967Z,24.00
2022-08-14T00:20:23.864Z,23.90
2022-08-14T00:21:30.969Z,23.90
2022-08-14T00:22:57.101Z,23.90
2022-08-14T00:24:01.395Z,23.80
2022-08-14T00:25:08.821Z,23.80
2022-08-14T00:26:23.158Z,23.80
2022-08-14T00:27:26.957Z,23.80
2022-08-14T00:28:35.309Z,23.80
2022-08-14T00:29:40.684Z,23.80
2022-08-14T00:30:48.521Z,23.80
2022-08-14T00:31:55.283Z,23.80
2022-08-14T00:33:00.006Z,23.80
2022-08-14T00:34:37.521Z,23.70
2022-08-14T00:36:33.945Z,23.70
2022-08-14T00:36:50.911Z,23.80
2022-08-14T00:37:53.743Z,23.90
2022-08-14T00:38:58.708Z,23.90
2022-08-14T00:40:03.118Z,23.90
2022-08-14T00:41:24.174Z,23.80
2022-08-14T00:43:02.950Z,23.90
2022-08-14T00:43:52.217Z,23.90
2022-08-14T00:45:00.087Z,23.80
2022-08-14T00:46:07.919Z,23.70
2022-08-14T00:47:13.742Z,23.70
2022-08-14T00:48:34.696Z,23.70
2022-08-14T00:49:42.934Z,23.60
2022-08-14T00:50:47.177Z,23.50
2022-08-14T00:51:52.341Z,23.40
2022-08-14T00:52:56.551Z,23.30
2022-08-14T00:53:59.337Z,23.20
2022-08-14T00:55:03.835Z,23.10
2022-08-14T00:56:09.720Z,23.00
2022-08-14T00:57:20.585Z,23.00
2022-08-14T00:58:33.388Z,22.90
2022-08-14T00:59:37.335Z,22.90
2022-08-14T01:00:51.445Z,22.90
2022-08-14T01:02:02.915Z,22.80
2022-08-14T01:03:08.809Z,22.70
2022-08-14T01:04:38.361Z,22.70
2022-08-14T01:05:41.868Z,22.70
2022-08-14T01:06:55.233Z,22.70
2022-08-14T01:07:58.635Z,22.70
2022-08-14T01:09:03.621Z,22.80
2022-08-14T01:10:07.265Z,22.70
2022-08-14T01:11:19.444Z,22.80
2022-08-14T01:12:29.918Z,22.80
2022-08-14T01:13:42.683Z,22.90
2022-08-14T01:14:45.777Z,22.90
2022-08-14T01:15:58.636Z,22.90
2022-08-14T01:17:05.802Z,23.00
2022-08-14T01:18:30.872Z,23.00
2022-08-14T01:19:53.774Z,23.00
2022-08-14T01:21:07.345Z,23.10
2022-08-14T01:22:13.113Z,23.10
2022-08-14T01:23:19.468Z,23.20
2022-08-14T01:24:34.434Z,23.30
2022-08-14T01:25:38.499Z,23.30
2022-08-14T01:26:47.435Z,23.40
2022-08-14T01:27:57.707Z,23.40
2022-08-14T01:29:03.918Z,23.40
2022-08-14T01:30:08.055Z,23.40
2022-08-14T01:31:15.728Z,23.50
2022-08-14T01:32:22.771Z,23.50
2022-08-14T01:33:30.248Z,23.50
2022-08-14T01:35:20.627Z,23.50
2022-08-14T01:36:05.337Z,23.60
2022-08-14T01:37:25.114Z,23.60
2022-08-14T01:38:37.208Z,23.70
2022-08-14T01:39:40.438Z,23.70
2022-08-14T01:40:44.389Z,23.80
2022-08-14T01:41:55.760Z,23.80
2022-08-14T01:43:02.551Z,23.80
2022-08-14T01:44:32.479Z,23.80
2022-08-14T01:45:40.249Z,23.70
2022-08-14T01:46:46.494Z,23.80
2022-08-14T01:48:03.317Z,23.80
2022-08-14T01:49:11.947Z,23.80
2022-08-14T01:50:17.268Z,23.80
2022-08-14T01:51:24.230Z,23.80
2022-08-14T01:52:33.554Z,23.80
2022-08-14T01:53:39.645Z,23.80
2022-08-14T01:54:42.443Z,23.80
2022-08-14T01:55:49.759Z,23.70
2022-08-14T01:56:56.630Z,23.70
2022-08-14T01:58:19.830Z,23.70
2022-08-14T01:59:37.515Z,23.60
2022-08-14T02:00:41.027Z,23.50
2022-08-14T02:01:58.028Z,23.50
2022-08-14T02:03:02.000Z,23.50
2022-08-14T02:04:06.413Z,23.40
2022-08-14T02:05:35.593Z,23.40
2022-08-14T02:06:41.647Z,23.40
2022-08-14T02:07:55.937Z,23.20
2022-08-14T02:09:19.368Z,23.10
2022-08-14T02:10:29.126Z,23.00
2022-08-14T02:11:35.559Z,22.80
2022-08-14T02:12:38.349Z,22.70
2022-08-14T02:13:44.075Z,22.70
2022-08-14T02:14:59.079Z,22.60
2022-08-14T02:16:13.432Z,22.50
2022-08-14T02:17:25.789Z,22.50
2022-08-14T02:18:28.750Z,22.50
2022-08-14T02:19:36.849Z,22.50
2022-08-14T02:20:39.996Z,22.60
2022-08-14T02:21:48.919Z,22.50
2022-08-14T02:22:55.072Z,22.50
2022-08-14T02:24:00.393Z,22.40
2022-08-14T02:25:03.049Z,22.30
2022-08-14T02:26:24.834Z,22.30
2022-08-14T02:28:23.110Z,22.20
2022-08-14T02:29:00.942Z,22.20
2022-08-14T02:30:09.230Z,22.10
2022-08-14T02:33:19.826Z,22.00
2022-08-14T02:34:29.304Z,21.80
2022-08-14T02:35:33.287Z,21.70
2022-08-14T02:37:05.430Z,21.70
2022-08-14T02:38:11.740Z,21.60
2022-08-14T02:39:16.321Z,21.50
2022-08-14T02:40:32.452Z,21.50
2022-08-14T02:41:39.927Z,21.60
2022-08-14T02:42:54.819Z,21.50
2022-08-14T02:44:00.820Z,21.60
2022-08-14T02:45:07.564Z,21.50
2022-08-14T02:46:12.547Z,21.50
2022-08-14T02:47:19.176Z,21.50
2022-08-14T02:49:01.469Z,21.50
2022-08-14T02:49:50.533Z,21.40
2022-08-14T02:50:57.258Z,21.70
2022-08-14T02:52:26.996Z,21.40
2022-08-14T02:53:33.533Z,21.50
2022-08-14T02:54:36.286Z,21.60
2022-08-14T02:55:40.409Z,21.60
2022-08-14T02:57:15.615Z,21.70
2022-08-14T02:58:08.511Z,21.70
2022-08-14T02:59:14.394Z,22.00
2022-08-14T03:00:18.884Z,22.00
2022-08-14T03:01:24.190Z,22.00
2022-08-14T03:02:56.445Z,22.10
2022-08-14T03:03:57.831Z,22.10
2022-08-14T03:05:01.857Z,22.10
2022-08-14T03:06:05.817Z,22.20
2022-08-14T03:07:11.360Z,22.30
2022-08-14T03:08:20.103Z,22.30
2022-08-14T03:09:42.318Z,22.30
2022-08-14T03:10:50.188Z,22.40
2022-08-14T03:11:54.101Z,22.40
2022-08-14T03:12:59.224Z,22.40
2022-08-14T03:14:05.101Z,22.40
2022-08-14T03:15:13.917Z,22.50
2022-08-14T03:16:26.886Z,22.50
2022-08-14T03:17:31.794Z,22.50
2022-08-14T03:18:46.732Z,22.50
2022-08-14T03:19:55.012Z,22.50
2022-08-14T03:21:04.407Z,22.40
2022-08-14T03:22:09.409Z,22.50
2022-08-14T03:23:23.898Z,22.50
2022-08-14T03:24:27.885Z,22.50
2022-08-14T03:25:37.665Z,22.60
2022-08-14T03:26:43.838Z,22.60
2022-08-14T03:27:48.475Z,22.60
2022-08-14T03:29:02.450Z,22.50
2022-08-14T03:30:06.810Z,22.60
2022-08-14T03:31:26.053Z,22.60
2022-08-14T03:32:33.537Z,22.50
2022-08-14T03:33:40.438Z,22.40
2022-08-14T03:34:48.056Z,22.40
2022-08-14T03:35:59.802Z,22.30
2022-08-14T03:37:39.280Z,22.30
2022-08-14T03:39:15.410Z,22.10
2022-08-14T03:39:58.123Z,22.10
2022-08-14T03:41:01.597Z,21.90
2022-08-14T03:42:05.077Z,21.90
2022-08-14T03:43:22.903Z,21.80
2022-08-14T03:45:19.986Z,21.80
2022-08-14T03:45:49.924Z,21.80
2022-08-14T03:46:56.229Z,21.80
2022-08-14T03:48:01.675Z,21.70
2022-08-14T03:49:05.912Z,21.70
2022-08-14T03:50:11.323Z,21.80
2022-08-14T03:51:16.000Z,21.70
2022-08-14T03:52:38.368Z,21.70
2022-08-14T03:53:45.923Z,21.80
2022-08-14T03:54:52.367Z,21.90
2022-08-14T03:55:59.116Z,21.90
2022-08-14T03:57:04.829Z,21.90
2022-08-14T03:58:08.484Z,21.90
2022-08-14T03:59:18.116Z,22.60
2022-08-14T04:00:42.920Z,21.90
2022-08-14T04:01:53.950Z,21.80
2022-08-14T04:03:07.628Z,21.70
2022-08-14T04:04:11.285Z,21.70
2022-08-14T04:05:16.338Z,21.50
2022-08-14T04:06:21.857Z,21.60
2022-08-14T04:07:32.916Z,21.60
2022-08-14T04:08:41.874Z,21.60
2022-08-14T04:09:44.499Z,21.60
2022-08-14T04:10:49.301Z,21.50
2022-08-14T04:11:54.606Z,21.50
2022-08-14T04:13:03.648Z,21.40
2022-08-14T04:14:08.267Z,21.40
2022-08-14T04:15:11.231Z,21.40
2022-08-14T04:16:18.063Z,21.70
2022-08-14T04:17:20.992Z,21.40
2022-08-14T04:18:25.777Z,21.40
2022-08-14T04:19:33.011Z,21.40
2022-08-14T04:20:54.446Z,21.50
2022-08-14T04:22:03.454Z,21.40
2022-08-14T04:23:10.501Z,21.40
2022-08-14T04:24:20.826Z,21.50
2022-08-14T04:25:31.813Z,21.50
2022-08-14T04:26:43.043Z,21.50
2022-08-14T04:28:01.837Z,21.50
2022-08-14T04:29:14.853Z,21.60
2022-08-14T04:30:30.719Z,21.70
2022-08-14T04:32:58.392Z,21.80
2022-08-14T04:33:05.508Z,21.90
2022-08-14T04:34:17.297Z,21.70
2022-08-14T04:35:27.787Z,21.60
2022-08-14T04:37:08.321Z,21.60
2022-08-14T04:38:37.184Z,21.50
2022-08-14T04:40:00.524Z,21.50
2022-08-14T04:41:24.299Z,21.50
2022-08-14T04:42:52.775Z,21.50
2022-08-14T04:43:57.649Z,21.40
2022-08-14T04:45:00.982Z,21.40
2022-08-14T04:46:04.804Z,21.30
2022-08-14T04:47:30.924Z,21.30
2022-08-14T04:48:42.977Z,21.10
2022-08-14T04:49:57.388Z,21.20
2022-08-14T04:51:03.469Z,21.20
2022-08-14T04:52:15.396Z,21.10
2022-08-14T04:53:26.198Z,21.20
2022-08-14T04:54:36.826Z,21.20
2022-08-14T04:55:43.059Z,21.20
2022-08-14T04:56:45.571Z,21.20
2022-08-14T04:57:49.430Z,21.30
2022-08-14T04:58:58.038Z,21.30
2022-08-14T05:00:08.390Z,21.40
2022-08-14T05:01:20.358Z,21.40
2022-08-14T05:02:24.637Z,21.50
2022-08-14T05:03:32.150Z,21.50
2022-08-14T05:04:35.784Z,21.60
2022-08-14T05:05:42.401Z,21.60
2022-08-14T05:06:46.378Z,21.70
2022-08-14T05:08:01.192Z,21.70
2022-08-14T05:09:05.896Z,21.80
2022-08-14T05:10:13.002Z,21.70
2022-08-14T05:11:19.371Z,21.80
2022-08-14T05:13:11.079Z,21.70
2022-08-14T05:14:16.779Z,21.70
2022-08-14T05:15:11.332Z,21.60
2022-08-14T05:16:14.830Z,21.60
2022-08-14T05:17:17.301Z,21.60
2022-08-14T05:19:16.904Z,21.60
2022-08-14T05:21:54.493Z,21.60
2022-08-14T05:21:56.030Z,21.70
2022-08-14T05:22:34.002Z,21.70
2022-08-14T05:23:39.344Z,21.80
2022-08-14T05:24:44.907Z,21.80
2022-08-14T05:25:51.463Z,21.80
2022-08-14T05:26:55.447Z,21.90
2022-08-14T05:28:00.701Z,21.90
2022-08-14T05:29:03.138Z,22.00
2022-08-14T05:30:18.490Z,22.10
2022-08-14T05:31:21.365Z,22.30
2022-08-14T05:32:27.238Z,22.30
2022-08-14T05:33:34.965Z,22.40
2022-08-14T05:34:37.456Z,22.40
2022-08-14T05:35:42.418Z,22.40
2022-08-14T05:36:50.518Z,22.40
2022-08-14T05:38:10.858Z,22.50
2022-08-14T05:39:24.867Z,22.50
2022-08-14T05:40:28.677Z,22.60
2022-08-14T05:41:52.338Z,22.70
2022-08-14T05:42:56.689Z,22.70
2022-08-14T05:44:01.304Z,22.80
2022-08-14T05:45:11.140Z,22.80
2022-08-14T05:46:23.010Z,23.10
2022-08-14T05:47:28.596Z,22.80
2022-08-14T05:48:43.198Z,22.90
2022-08-14T05:49:48.428Z,22.80
2022-08-14T05:50:51.835Z,22.90
2022-08-14T05:51:56.448Z,22.80
2022-08-14T05:53:01.438Z,22.80
2022-08-14T05:54:10.081Z,22.90
2022-08-14T05:55:16.751Z,22.80
2022-08-14T05:56:26.286Z,22.70
2022-08-14T05:57:35.096Z,22.80
2022-08-14T05:58:40.985Z,22.80
2022-08-14T05:59:43.838Z,22.90
2022-08-14T06:00:48.298Z,22.90
2022-08-14T06:01:53.735Z,22.80
2022-08-14T06:02:57.360Z,23.00
2022-08-14T06:04:00.204Z,23.30
2022-08-14T06:05:03.700Z,23.20
2022-08-14T06:06:08.124Z,23.30
2022-08-14T06:07:10.479Z,23.30
2022-08-14T06:08:31.291Z,23.30
2022-08-14T06:09:40.608Z,23.20
2022-08-14T06:10:44.493Z,23.20
2022-08-14T06:11:49.787Z,23.10
2022-08-14T06:12:55.681Z,23.10
2022-08-14T06:13:59.516Z,23.00
2022-08-14T06:15:05.895Z,22.90
2022-08-14T06:16:11.224Z,23.00
2022-08-14T06:17:26.245Z,22.90
2022-08-14T06:18:32.218Z,22.90
2022-08-14T06:19:34.796Z,22.90
2022-08-14T06:20:38.746Z,22.80
2022-08-14T06:21:44.543Z,22.90
2022-08-14T06:22:48.788Z,22.90
2022-08-14T06:23:52.536Z,22.90
2022-08-14T06:24:55.845Z,22.90
2022-08-14T06:25:58.592Z,22.90
2022-08-14T06:27:04.554Z,22.90
2022-08-14T06:28:27.326Z,22.90
2022-08-14T06:29:32.499Z,23.00
2022-08-14T06:30:45.640Z,22.90
2022-08-14T06:32:00.193Z,23.00
2022-08-14T06:33:06.914Z,23.00
2022-08-14T06:35:02.544Z,23.00
2022-08-14T06:35:33.208Z,22.90
2022-08-14T06:36:37.904Z,23.00
2022-08-14T06:37:45.498Z,23.00
2022-08-14T06:38:53.316Z,23.00
2022-08-14T06:39:56.920Z,23.00
2022-08-14T06:41:00.581Z,23.00
2022-08-14T06:42:05.848Z,22.90
2022-08-14T06:43:12.338Z,23.00
2022-08-14T06:44:18.917Z,23.00
2022-08-14T06:45:26.362Z,23.00
2022-08-14T06:46:34.462Z,23.00
2022-08-14T06:47:43.786Z,22.90
2022-08-14T06:48:49.754Z,22.90
2022-08-14T06:49:57.714Z,22.90
2022-08-14T06:51:02.073Z,22.80
2022-08-14T06:52:05.074Z,22.70
2022-08-14T06:53:09.806Z,22.70
2022-08-14T06:54:12.859Z,22.70
2022-08-14T06:55:20.765Z,22.70
2022-08-14T06:56:28.283Z,22.60
2022-08-14T06:57:38.871Z,22.60
2022-08-14T06:58:41.617Z,22.70
2022-08-14T06:59:46.268Z,22.70
2022-08-14T07:01:03.568Z,22.80
2022-08-14T07:02:24.962Z,23.00
2022-08-14T07:03:51.056Z,23.20
2022-08-14T07:05:21.105Z,23.50
2022-08-14T07:06:46.404Z,23.60
2022-08-14T07:07:50.943Z,23.70
2022-08-14T07:08:54.692Z,23.80
2022-08-14T07:09:57.037Z,23.90
2022-08-14T07:11:04.058Z,24.10
2022-08-14T07:12:07.898Z,24.10
2022-08-14T07:13:12.852Z,24.30
2022-08-14T07:14:15.268Z,24.40
2022-08-14T07:15:19.354Z,24.40
2022-08-14T07:16:22.083Z,24.50
2022-08-14T07:17:31.933Z,24.50
2022-08-14T07:18:37.762Z,24.60
2022-08-14T07:19:43.380Z,24.60
2022-08-14T07:20:56.611Z,24.70
2022-08-14T07:22:00.050Z,24.90
2022-08-14T07:23:19.853Z,25.00
2022-08-14T07:24:31.082Z,25.00
2022-08-14T07:25:37.670Z,25.10
2022-08-14T07:29:46.722Z,25.20
2022-08-14T07:30:56.513Z,25.20
2022-08-14T07:32:00.463Z,25.40
2022-08-14T07:33:07.698Z,25.40
2022-08-14T07:34:36.148Z,25.50
2022-08-14T07:35:57.326Z,25.50
2022-08-14T07:37:03.168Z,25.50
2022-08-14T07:38:06.121Z,25.70
2022-08-14T07:39:12.227Z,25.70
2022-08-14T07:40:22.123Z,25.80
2022-08-14T07:41:35.758Z,25.80
2022-08-14T07:42:41.126Z,25.80
2022-08-14T07:43:52.922Z,25.80
2022-08-14T07:44:58.443Z,25.70
2022-08-14T07:46:01.949Z,25.80
2022-08-14T07:47:05.695Z,25.70
2022-08-14T07:48:09.392Z,25.70
2022-08-14T07:49:18.459Z,25.80
2022-08-14T07:50:21.974Z,25.00
2022-08-14T07:51:26.109Z,25.80
2022-08-14T07:52:40.634Z,25.70
2022-08-14T07:53:45.765Z,25.50
2022-08-14T07:54:50.892Z,25.40
2022-08-14T07:56:00.475Z,25.30
2022-08-14T07:57:24.891Z,25.20
2022-08-14T07:58:33.977Z,25.20
2022-08-14T07:59:42.496Z,25.10
2022-08-14T08:00:46.665Z,25.10
2022-08-14T08:01:57.470Z,25.10
2022-08-14T08:03:01.051Z,25.20
2022-08-14T08:04:15.504Z,25.10
2022-08-14T08:05:25.046Z,25.10
2022-08-14T08:06:29.682Z,25.10
2022-08-14T08:07:33.755Z,25.00
2022-08-14T08:08:37.565Z,25.00
2022-08-14T08:09:53.042Z,25.00
2022-08-14T08:11:02.910Z,25.00
2022-08-14T08:12:09.354Z,25.00
2022-08-14T08:13:23.959Z,24.90
2022-08-14T08:14:28.480Z,24.90
2022-08-14T08:15:34.788Z,24.80
2022-08-14T08:16:38.481Z,24.80
2022-08-14T08:17:53.722Z,24.80
2022-08-14T08:19:12.569Z,24.80
2022-08-14T08:20:20.221Z,24.80
2022-08-14T08:21:26.980Z,24.70
2022-08-14T08:22:32.507Z,24.80
2022-08-14T08:23:43.722Z,24.80
2022-08-14T08:24:55.349Z,24.90
2022-08-14T08:26:01.421Z,24.90
2022-08-14T08:27:16.808Z,24.90
2022-08-14T08:28:25.508Z,24.90
2022-08-14T08:29:29.773Z,24.90
2022-08-14T08:30:34.694Z,24.90
2022-08-14T08:31:51.931Z,24.90
2022-08-14T08:32:58.540Z,25.00
2022-08-14T08:34:07.136Z,25.00
2022-08-14T08:35:21.243Z,25.20
2022-08-14T08:36:25.305Z,25.30
2022-08-14T08:37:40.145Z,25.40
2022-08-14T08:39:18.062Z,25.50
2022-08-14T08:40:23.937Z,25.70
2022-08-14T08:41:41.544Z,25.70
2022-08-14T08:42:46.114Z,25.60
2022-08-14T08:44:05.784Z,25.50
2022-08-14T08:45:21.747Z,25.50
2022-08-14T08:46:29.617Z,25.50
2022-08-14T08:47:39.040Z,25.50
2022-08-14T08:48:53.876Z,25.50
2022-08-14T08:49:59.699Z,25.50
2022-08-14T08:51:05.275Z,25.40
2022-08-14T08:52:24.448Z,25.40
2022-08-14T08:53:32.789Z,25.30
2022-08-14T08:54:35.570Z,25.30
2022-08-14T08:55:43.634Z,25.20
2022-08-14T08:56:48.936Z,25.20
2022-08-14T08:57:56.302Z,25.10
2022-08-14T08:58:58.817Z,25.00
2022-08-14T09:00:09.983Z,25.00
2022-08-14T09:01:30.916Z,25.00
2022-08-14T09:02:34.764Z,24.90
2022-08-14T09:03:43.941Z,24.90
2022-08-14T09:04:53.149Z,24.90
2022-08-14T09:06:01.426Z,24.90
2022-08-14T09:07:10.828Z,25.00
2022-08-14T09:08:30.495Z,25.00
2022-08-14T09:09:53.516Z,25.00
2022-08-14T09:11:01.831Z,25.00
2022-08-14T09:12:07.271Z,25.10
2022-08-14T09:13:19.383Z,25.10
2022-08-14T09:14:22.162Z,25.10
2022-08-14T09:15:26.113Z,25.20
2022-08-14T09:16:45.111Z,25.20
2022-08-14T09:17:51.680Z,25.20
2022-08-14T09:18:55.305Z,25.20
2022-08-14T09:20:02.343Z,25.10
2022-08-14T09:21:09.866Z,25.10
2022-08-14T09:22:35.138Z,25.10
2022-08-14T09:24:26.542Z,25.10
2022-08-14T09:25:03.050Z,25.20
2022-08-14T09:26:21.303Z,25.30
2022-08-14T09:27:24.216Z,25.30
2022-08-14T09:28:27.862Z,25.40
2022-08-14T09:29:31.811Z,25.40
2022-08-14T09:30:39.437Z,25.40
2022-08-14T09:31:53.400Z,25.50
2022-08-14T09:33:30.567Z,25.30
2022-08-14T09:34:58.153Z,25.40
2022-08-14T09:36:26.333Z,25.20
2022-08-14T09:37:41.925Z,25.10
2022-08-14T09:38:51.622Z,25.00
2022-08-14T09:40:10.250Z,25.00
2022-08-14T09:42:20.410Z,25.00
2022-08-14T09:43:13.138Z,25.00
2022-08-14T09:44:30.000Z,25.00
2022-08-14T09:45:53.158Z,25.00
2022-08-14T09:46:58.040Z,25.10
2022-08-14T09:48:15.007Z,25.00
2022-08-14T09:49:18.348Z,25.00
2022-08-14T09:50:28.548Z,25.00
2022-08-14T09:51:51.579Z,25.00
2022-08-14T09:52:59.768Z,24.90
2022-08-14T09:54:18.674Z,24.90
2022-08-14T09:55:36.831Z,24.80
2022-08-14T09:56:57.509Z,24.80
2022-08-14T09:58:19.346Z,24.70
2022-08-14T09:59:25.629Z,24.70
2022-08-14T10:00:44.400Z,24.70
2022-08-14T10:01:53.109Z,24.80
2022-08-14T10:03:05.242Z,24.70
2022-08-14T10:04:34.489Z,25.00
2022-08-14T10:05:40.827Z,24.90
2022-08-14T10:06:45.604Z,24.90
2022-08-14T10:07:53.366Z,24.90
2022-08-14T10:09:04.184Z,24.90
2022-08-14T10:10:23.461Z,24.80
2022-08-14T10:11:34.860Z,24.80
2022-08-14T10:12:49.260Z,24.80
2022-08-14T10:14:00.129Z,24.80
2022-08-14T10:15:03.770Z,24.80
2022-08-14T10:16:06.899Z,24.80
2022-08-14T10:17:27.656Z,24.80
2022-08-14T10:18:41.281Z,24.80
2022-08-14T10:19:50.101Z,24.90
2022-08-14T10:20:57.594Z,24.90
2022-08-14T10:23:13.472Z,24.90
2022-08-14T10:23:33.951Z,25.00
2022-08-14T10:24:40.593Z,25.00
2022-08-14T10:25:51.309Z,25.10
2022-08-14T10:27:00.527Z,25.10
2022-08-14T10:28:06.483Z,25.10
2022-08-14T10:29:35.096Z,25.20
2022-08-14T10:30:38.921Z,25.20
2022-08-14T10:31:45.183Z,25.20
2022-08-14T10:32:51.671Z,25.20
2022-08-14T10:34:00.737Z,25.10
2022-08-14T10:35:14.433Z,25.10
2022-08-14T10:36:36.994Z,25.00
2022-08-14T10:37:48.434Z,25.10
2022-08-14T10:38:58.241Z,25.10
2022-08-14T10:40:10.345Z,25.10
2022-08-14T10:41:46.502Z,25.10
2022-08-14T10:42:51.162Z,25.10
2022-08-14T10:44:21.440Z,25.10
2022-08-14T10:45:33.858Z,25.10
2022-08-14T10:47:39.642Z,25.00
2022-08-14T10:48:23.659Z,25.00
2022-08-14T10:49:39.139Z,25.00
2022-08-14T10:50:46.447Z,25.10
2022-08-14T10:52:00.248Z,25.10
2022-08-14T10:53:05.677Z,25.20
2022-08-14T10:54:35.570Z,25.30
2022-08-14T10:55:44.949Z,25.20
2022-08-14T10:56:48.331Z,25.30
2022-08-14T10:57:57.792Z,25.40
2022-08-14T10:59:02.950Z,25.40
2022-08-14T11:00:29.597Z,25.50
2022-08-14T11:01:41.418Z,25.50
2022-08-14T11:02:55.257Z,25.70
2022-08-14T11:04:03.264Z,25.80
2022-08-14T11:05:14.970Z,25.90
2022-08-14T11:06:20.781Z,26.00
2022-08-14T11:07:23.601Z,26.20
2022-08-14T11:08:33.860Z,26.50
2022-08-14T11:09:36.457Z,26.50
2022-08-14T11:10:49.442Z,26.50
2022-08-14T11:12:34.904Z,26.60
2022-08-14T11:13:23.933Z,26.50
2022-08-14T11:14:27.090Z,26.60
2022-08-14T11:15:32.435Z,26.70
2022-08-14T11:16:39.383Z,26.70
2022-08-14T11:17:46.461Z,26.70
2022-08-14T11:18:55.900Z,26.60
2022-08-14T11:20:05.889Z,26.60
2022-08-14T11:21:21.451Z,26.70
2022-08-14T11:22:56.760Z,26.80
2022-08-14T11:23:57.148Z,26.80
2022-08-14T11:25:06.504Z,26.70
2022-08-14T11:26:10.762Z,26.70
2022-08-14T11:27:16.766Z,26.80
2022-08-14T11:28:46.820Z,26.80
2022-08-14T11:29:52.575Z,26.70
2022-08-14T11:31:05.416Z,26.70
2022-08-14T11:32:09.781Z,26.60
2022-08-14T11:33:13.782Z,26.60
2022-08-14T11:34:29.779Z,26.50
2022-08-14T11:35:44.246Z,26.50
2022-08-14T11:37:04.340Z,26.50
2022-08-14T11:38:21.868Z,26.50
2022-08-14T11:39:34.910Z,26.50
2022-08-14T11:40:43.697Z,26.50
2022-08-14T11:41:55.658Z,26.50
2022-08-14T11:43:01.386Z,26.60
2022-08-14T11:44:13.064Z,26.50
2022-08-14T11:45:23.557Z,26.60
2022-08-14T11:46:29.603Z,26.60
2022-08-14T11:47:35.187Z,26.60
2022-08-14T11:49:02.642Z,26.70
2022-08-14T11:50:13.574Z,26.70
2022-08-14T11:51:23.961Z,26.70
2022-08-14T11:52:34.843Z,26.70
2022-08-14T11:53:45.723Z,26.80
2022-08-14T11:54:58.057Z,26.80
2022-08-14T11:56:06.119Z,26.90
2022-08-14T11:57:16.331Z,26.90
2022-08-14T11:58:28.534Z,27.10
2022-08-14T11:59:33.589Z,27.10
2022-08-14T12:00:48.775Z,27.10
2022-08-14T12:01:55.125Z,27.10
2022-08-14T12:03:03.445Z,27.10
2022-08-14T12:04:31.838Z,27.20
2022-08-14T12:05:39.909Z,27.20
2022-08-14T12:06:52.438Z,27.30
2022-08-14T12:07:56.531Z,27.30
2022-08-14T12:09:00.769Z,27.40
2022-08-14T12:10:26.353Z,27.40
2022-08-14T12:11:43.237Z,27.50
2022-08-14T12:12:48.821Z,27.60
2022-08-14T12:13:56.069Z,27.60
2022-08-14T12:15:01.994Z,27.50
2022-08-14T12:16:11.116Z,27.60
2022-08-14T12:17:23.446Z,27.60
2022-08-14T12:18:32.656Z,27.60
2022-08-14T12:19:51.581Z,27.60
2022-08-14T12:20:59.515Z,27.00
2022-08-14T12:22:02.898Z,27.30
2022-08-14T12:23:09.052Z,27.20
2022-08-14T12:24:36.049Z,27.30
2022-08-14T12:25:36.561Z,27.20
2022-08-14T12:26:41.751Z,27.10
2022-08-14T12:27:53.991Z,27.10
2022-08-14T12:29:08.672Z,27.00
2022-08-14T12:30:15.080Z,27.00
2022-08-14T12:31:24.977Z,27.00
2022-08-14T12:32:42.024Z,27.00
2022-08-14T12:33:56.965Z,26.90
2022-08-14T12:34:59.421Z,26.90
2022-08-14T12:36:12.308Z,26.90
2022-08-14T12:37:31.822Z,26.90
2022-08-14T12:38:38.806Z,26.80
2022-08-14T12:39:42.007Z,26.80
2022-08-14T12:40:48.722Z,26.80
2022-08-14T12:41:57.313Z,26.80
2022-08-14T12:43:02.288Z,26.90
2022-08-14T12:44:08.737Z,26.90
2022-08-14T12:45:17.351Z,26.90
2022-08-14T12:46:27.539Z,26.80
2022-08-14T12:47:31.487Z,26.90
2022-08-14T12:48:50.365Z,26.90
2022-08-14T12:49:57.838Z,27.00
2022-08-14T12:51:01.666Z,27.00
2022-08-14T12:52:10.536Z,27.00
2022-08-14T12:53:22.136Z,27.00
2022-08-14T12:54:28.465Z,27.10
2022-08-14T12:56:22.590Z,27.10
2022-08-14T12:57:08.412Z,27.20
2022-08-14T12:58:29.614Z,27.10
2022-08-14T12:59:43.039Z,27.10
2022-08-14T13:01:14.281Z,27.20
2022-08-14T13:02:25.286Z,27.20
2022-08-14T13:03:29.817Z,27.20
2022-08-14T13:04:35.419Z,27.10
2022-08-14T13:05:38.421Z,27.00
2022-08-14T13:06:50.704Z,27.00
2022-08-14T13:07:59.206Z,27.00
2022-08-14T13:09:02.072Z,27.00
2022-08-14T13:10:46.022Z,27.10
2022-08-14T13:11:41.039Z,27.00
2022-08-14T13:13:10.072Z,27.00
2022-08-14T13:14:09.320Z,27.10
2022-08-14T13:15:20.510Z,27.10
2022-08-14T13:16:33.533Z,27.20
2022-08-14T13:17:46.065Z,27.30
2022-08-14T13:18:58.364Z,27.40
2022-08-14T13:20:10.255Z,27.50
2022-08-14T13:21:15.093Z,27.70
2022-08-14T13:22:19.808Z,27.80
2022-08-14T13:23:38.439Z,28.00
2022-08-14T13:24:41.554Z,28.20
2022-08-14T13:25:55.625Z,28.20
2022-08-14T13:27:00.519Z,28.30
2022-08-14T13:28:04.884Z,28.30
2022-08-14T13:29:18.535Z,28.40
2022-08-14T13:30:26.254Z,28.40
2022-08-14T13:31:34.154Z,28.40
2022-08-14T13:32:40.597Z,28.40
2022-08-14T13:33:43.057Z,28.50
2022-08-14T13:34:52.633Z,28.50
2022-08-14T13:35:57.678Z,28.40
2022-08-14T13:37:03.704Z,28.40
2022-08-14T13:38:06.855Z,28.30
2022-08-14T13:39:18.586Z,28.20
2022-08-14T13:40:26.512Z,28.20
2022-08-14T13:41:34.613Z,28.20
2022-08-14T13:42:44.133Z,28.20
2022-08-14T13:43:59.627Z,28.30
2022-08-14T13:45:07.129Z,28.40
2022-08-14T13:46:11.376Z,28.30
2022-08-14T13:47:16.079Z,28.10
2022-08-14T13:48:32.495Z,28.00
2022-08-14T13:49:40.269Z,28.00
2022-08-14T13:51:04.241Z,28.00
2022-08-14T13:52:14.594Z,28.20
2022-08-14T13:54:07.165Z,28.20
2022-08-14T13:55:13.871Z,28.20
2022-08-14T13:56:36.024Z,28.10
2022-08-14T13:57:49.557Z,28.10
2022-08-14T13:59:00.142Z,28.10
2022-08-14T14:00:07.180Z,28.00
2022-08-14T14:01:19.147Z,28.00
2022-08-14T14:02:34.060Z,27.90
2022-08-14T14:03:39.713Z,27.90
2022-08-14T14:04:49.328Z,28.00
2022-08-14T14:05:55.137Z,28.00
2022-08-14T14:07:03.006Z,28.00
2022-08-14T14:08:18.552Z,28.10
2022-08-14T14:09:43.828Z,28.10
2022-08-14T14:10:57.519Z,28.20
2022-08-14T14:12:00.715Z,28.20
2022-08-14T14:13:05.923Z,28.30
2022-08-14T14:14:45.161Z,28.30
2022-08-14T14:15:58.175Z,28.20
2022-08-14T14:17:02.009Z,28.20
2022-08-14T14:18:04.564Z,28.10
2022-08-14T14:19:30.979Z,28.10
2022-08-14T14:20:34.157Z,28.00
2022-08-14T14:21:40.327Z,27.90
2022-08-14T14:23:01.843Z,27.80
2022-08-14T14:24:06.968Z,27.70
2022-08-14T14:25:10.416Z,27.70
2022-08-14T14:26:23.498Z,27.70
2022-08-14T14:27:44.216Z,27.70
2022-08-14T14:28:51.862Z,27.60
2022-08-14T14:29:59.508Z,27.60
2022-08-14T14:31:06.816Z,27.60
2022-08-14T14:32:11.463Z,27.50
2022-08-14T14:33:48.729Z,27.70
2022-08-14T14:34:55.689Z,27.80
2022-08-14T14:36:02.776Z,27.80
2022-08-14T14:37:12.365Z,27.90
2022-08-14T14:38:18.131Z,28.00
2022-08-14T14:39:26.865Z,28.00
2022-08-14T14:40:52.393Z,28.10
2022-08-14T14:42:04.046Z,28.00
2022-08-14T14:43:12.512Z,28.10
2022-08-14T14:44:17.550Z,28.20
2022-08-14T14:45:24.180Z,28.20
2022-08-14T14:46:36.875Z,28.30
2022-08-14T14:47:42.567Z,28.30
2022-08-14T14:48:53.957Z,28.30
2022-08-14T14:49:58.250Z,28.30
2022-08-14T14:51:01.991Z,28.30
2022-08-14T14:52:11.824Z,28.30
2022-08-14T14:53:28.426Z,28.40
2022-08-14T14:54:37.468Z,28.40
2022-08-14T14:55:43.272Z,28.50
2022-08-14T14:57:09.357Z,28.50
2022-08-14T14:58:16.437Z,28.50
2022-08-14T14:59:23.691Z,28.50
2022-08-14T15:00:30.979Z,28.60
2022-08-14T15:01:36.519Z,28.50
2022-08-14T15:02:42.524Z,28.40
2022-08-14T15:03:46.117Z,28.40
2022-08-14T15:04:49.626Z,28.50
2022-08-14T15:05:53.338Z,28.40
2022-08-14T15:06:56.623Z,28.50
2022-08-14T15:07:59.276Z,28.50
2022-08-14T15:09:04.689Z,28.50
2022-08-14T15:10:26.897Z,28.60
2022-08-14T15:11:34.616Z,28.60
2022-08-14T15:12:56.041Z,28.70
2022-08-14T15:14:00.362Z,28.70